createdAt,value
2017-11-13T00:00:13.781Z,91.52
2017-11-13T00:00:54.374Z,91.33
2017-11-13T00:01:34.953Z,91.71
2017-11-13T00:02:15.532Z,91.89
2017-11-13T00:02:56.155Z,91.99
2017-11-13T00:03:36.732Z,91.61
2017-11-13T00:04:17.297Z,91.61
2017-11-13T00:04:57.868Z,91.71
2017-11-13T00:05:38.447Z,91.99
2017-11-13T00:06:19.046Z,91.71
2017-11-13T00:06:59.627Z,91.71
2017-11-13T00:07:40.213Z,91.89
2017-11-13T00:08:20.768Z,91.42
2017-11-13T00:09:01.350Z,91.33
2017-11-13T00:09:41.962Z,91.04
2017-11-13T00:10:22.546Z,90.66
2017-11-13T00:11:03.130Z,90.95
2017-11-13T00:11:43.721Z,90.66
2017-11-13T00:12:24.308Z,90.28
2017-11-13T00:13:04.904Z,90.38
2017-11-13T00:13:45.523Z,89.81
2017-11-13T00:14:26.114Z,89.9
2017-11-13T00:15:06.718Z,90.57
2017-11-13T00:15:47.315Z,90.76
2017-11-13T00:16:27.885Z,90.38
2017-11-13T00:17:08.446Z,90.57
2017-11-13T00:17:49.009Z,90.85
2017-11-13T00:18:29.580Z,90.95
2017-11-13T00:19:10.154Z,90.76
2017-11-13T00:19:50.746Z,90.76
2017-11-13T00:20:31.337Z,90.95
2017-11-13T00:21:11.940Z,90.95
2017-11-13T00:21:52.514Z,90.85
2017-11-13T00:22:33.081Z,91.04
2017-11-13T00:23:13.639Z,90.85
2017-11-13T00:23:54.242Z,91.04
2017-11-13T00:24:34.827Z,90.66
2017-11-13T00:25:15.453Z,90.95
2017-11-13T00:25:56.056Z,90.76
2017-11-13T00:26:36.637Z,90.57
2017-11-13T00:27:17.216Z,90.95
2017-11-13T00:27:57.803Z,90.47
2017-11-13T00:28:38.409Z,90.47
2017-11-13T00:29:19.021Z,90.57
2017-11-13T00:29:59.621Z,90.57
2017-11-13T00:30:40.179Z,90.85
2017-11-13T00:31:20.783Z,90.66
2017-11-13T00:32:01.382Z,90.76
2017-11-13T00:32:41.953Z,90.57
2017-11-13T00:33:22.542Z,90.57
2017-11-13T00:34:03.135Z,90.57
2017-11-13T00:34:43.766Z,90.28
2017-11-13T00:35:24.362Z,90.28
2017-11-13T00:36:04.943Z,90.09
2017-11-13T00:36:45.527Z,89.72
2017-11-13T00:37:26.189Z,89.72
2017-11-13T00:38:06.762Z,89.24
2017-11-13T00:38:47.351Z,89.43
2017-11-13T00:39:27.930Z,89.14
2017-11-13T00:40:08.523Z,89.14
2017-11-13T00:40:49.113Z,89.33
2017-11-13T00:41:29.688Z,89.24
2017-11-13T00:42:10.250Z,88.57
2017-11-13T00:42:50.804Z,88.1
2017-11-13T00:43:31.405Z,88.57
2017-11-13T00:44:11.959Z,88.39
2017-11-13T00:44:52.554Z,88.57
2017-11-13T00:45:33.160Z,88.39
2017-11-13T00:46:13.733Z,88.95
2017-11-13T00:46:54.294Z,88.67
2017-11-13T00:47:34.872Z,88.48
2017-11-13T00:48:15.452Z,88.86
2017-11-13T00:48:56.004Z,88.86
2017-11-13T00:49:36.575Z,88.86
2017-11-13T00:50:17.139Z,89.43
2017-11-13T00:50:57.707Z,89.05
2017-11-13T00:51:38.272Z,89.05
2017-11-13T00:52:18.832Z,89.43
2017-11-13T00:52:59.433Z,89.43
2017-11-13T00:53:40.004Z,88.57
2017-11-13T00:54:20.577Z,89.05
2017-11-13T00:55:01.149Z,88.48
2017-11-13T00:55:41.760Z,88.57
2017-11-13T00:56:22.338Z,88.57
2017-11-13T00:57:02.955Z,88.67
2017-11-13T00:57:43.552Z,88.57
2017-11-13T00:58:24.163Z,88.48
2017-11-13T00:59:04.760Z,88.39
2017-11-13T00:59:45.363Z,88.57
2017-11-13T01:00:25.944Z,88.29
2017-11-13T01:01:06.523Z,88.1
2017-11-13T01:01:47.120Z,87.62
2017-11-13T01:02:27.702Z,87.53
2017-11-13T01:03:08.308Z,88.01
2017-11-13T01:03:48.910Z,87.72
2017-11-13T01:04:29.461Z,88.1
2017-11-13T01:05:10.047Z,88.29
2017-11-13T01:05:50.627Z,88.2
2017-11-13T01:06:31.220Z,88.48
2017-11-13T01:07:11.789Z,88.57
2017-11-13T01:07:52.358Z,88.39
2017-11-13T01:08:32.925Z,88.29
2017-11-13T01:09:13.501Z,88.95
2017-11-13T01:09:54.169Z,88.48
2017-11-13T01:10:34.673Z,88.95
2017-11-13T01:11:15.261Z,88.2
2017-11-13T01:11:55.855Z,88.39
2017-11-13T01:12:36.416Z,88.95
2017-11-13T01:13:16.977Z,88.2
2017-11-13T01:13:57.535Z,88.2
2017-11-13T01:14:38.094Z,89.05
2017-11-13T01:15:18.681Z,88.86
2017-11-13T01:15:59.261Z,89.05
2017-11-13T01:16:39.844Z,88.39
2017-11-13T01:17:20.429Z,88.67
2017-11-13T01:18:01.010Z,89.05
2017-11-13T01:18:41.592Z,89.14
2017-11-13T01:19:22.161Z,89.24
2017-11-13T01:20:02.734Z,89.33
2017-11-13T01:20:43.323Z,89.05
2017-11-13T01:21:23.883Z,89.14
2017-11-13T01:22:04.489Z,89.14
2017-11-13T01:22:45.050Z,89.05
2017-11-13T01:23:25.625Z,89.05
2017-11-13T01:24:06.211Z,89.14
2017-11-13T01:24:46.776Z,89.14
2017-11-13T01:25:27.330Z,89.05
2017-11-13T01:26:07.925Z,89.14
2017-11-13T01:26:48.479Z,88.95
2017-11-13T01:27:29.074Z,89.24
2017-11-13T01:28:09.644Z,89.24
2017-11-13T01:28:50.233Z,89.05
2017-11-13T01:29:30.807Z,89.24
2017-11-13T01:30:11.374Z,88.95
2017-11-13T01:30:51.931Z,89.05
2017-11-13T01:31:32.508Z,88.95
2017-11-13T01:32:13.082Z,89.14
2017-11-13T01:32:53.661Z,89.24
2017-11-13T01:33:34.227Z,89.24
2017-11-13T01:34:14.797Z,89.05
2017-11-13T01:34:55.384Z,89.62
2017-11-13T01:35:35.977Z,89.33
2017-11-13T01:36:16.544Z,89.24
2017-11-13T01:36:57.115Z,89.33
2017-11-13T01:37:37.689Z,89.72
2017-11-13T01:38:18.253Z,89.62
2017-11-13T01:38:58.831Z,89.62
2017-11-13T01:39:39.396Z,89.14
2017-11-13T01:40:19.976Z,89.24
2017-11-13T01:41:00.548Z,89.53
2017-11-13T01:41:41.146Z,89.14
2017-11-13T01:42:21.718Z,89.05
2017-11-13T01:43:02.308Z,89.72
2017-11-13T01:43:42.893Z,89.62
2017-11-13T01:44:23.467Z,89.62
2017-11-13T01:45:04.052Z,89.53
2017-11-13T01:45:44.681Z,89.53
2017-11-13T01:46:25.245Z,89.62
2017-11-13T01:47:05.811Z,89.72
2017-11-13T01:47:46.395Z,89.53
2017-11-13T01:48:26.953Z,89.33
2017-11-13T01:49:07.533Z,89.81
2017-11-13T01:49:51.140Z,89.53
2017-11-13T01:50:31.734Z,89.81
2017-11-13T01:51:12.292Z,89.9
2017-11-13T01:51:52.866Z,89.62
2017-11-13T01:52:33.466Z,89.62
2017-11-13T01:53:14.059Z,89.53
2017-11-13T01:53:54.664Z,89.05
2017-11-13T01:54:35.250Z,89.43
2017-11-13T01:55:15.801Z,89.33
2017-11-13T01:55:56.378Z,89.24
2017-11-13T01:56:36.967Z,89.14
2017-11-13T01:57:17.538Z,89
2017-11-13T01:57:58.122Z,88.81
2017-11-13T01:58:38.743Z,89.05
2017-11-13T01:59:19.326Z,89.58
2017-11-13T01:59:59.898Z,89.58
2017-11-13T02:00:40.466Z,89.48
2017-11-13T02:01:21.041Z,89.67
2017-11-13T02:02:01.604Z,89.33
2017-11-13T02:02:42.165Z,89.24
2017-11-13T02:03:22.734Z,89.53
2017-11-13T02:04:03.299Z,89.76
2017-11-13T02:04:43.869Z,89.53
2017-11-13T02:05:24.446Z,89.67
2017-11-13T02:06:05.003Z,89.58
2017-11-13T02:06:45.560Z,89.48
2017-11-13T02:07:26.167Z,89.67
2017-11-13T02:08:06.696Z,90.14
2017-11-13T02:08:47.304Z,90.14
2017-11-13T02:09:27.867Z,89.95
2017-11-13T02:10:08.445Z,90.14
2017-11-13T02:10:49.008Z,89.95
2017-11-13T02:11:29.575Z,90.14
2017-11-13T02:12:10.127Z,90.14
2017-11-13T02:12:50.696Z,90.24
2017-11-13T02:13:31.281Z,90.24
2017-11-13T02:14:11.855Z,90.43
2017-11-13T02:14:52.424Z,90.14
2017-11-13T02:15:32.984Z,90.81
2017-11-13T02:16:13.548Z,90.95
2017-11-13T02:16:54.115Z,91
2017-11-13T02:17:34.668Z,91
2017-11-13T02:18:15.251Z,91
2017-11-13T02:18:55.820Z,91
2017-11-13T02:19:36.393Z,90.9
2017-11-13T02:20:16.956Z,91
2017-11-13T02:20:57.541Z,90.9
2017-11-13T02:21:38.102Z,90.52
2017-11-13T02:22:18.696Z,90.71
2017-11-13T02:22:59.253Z,90.52
2017-11-13T02:23:39.840Z,91
2017-11-13T02:24:20.453Z,91
2017-11-13T02:25:00.996Z,90.71
2017-11-13T02:25:41.552Z,90.81
2017-11-13T02:26:22.128Z,90.62
2017-11-13T02:27:02.693Z,90.66
2017-11-13T02:27:43.255Z,90.52
2017-11-13T02:28:23.845Z,90.62
2017-11-13T02:29:04.442Z,90.71
2017-11-13T02:29:45.036Z,90.71
2017-11-13T02:30:25.606Z,90.62
2017-11-13T02:31:06.163Z,90.66
2017-11-13T02:31:46.743Z,90.95
2017-11-13T02:32:27.325Z,90.85
2017-11-13T02:33:07.905Z,90.62
2017-11-13T02:33:48.463Z,90.76
2017-11-13T02:34:29.052Z,90.62
2017-11-13T02:35:09.612Z,90.81
2017-11-13T02:35:50.170Z,91.14
2017-11-13T02:36:30.743Z,90.85
2017-11-13T02:37:11.312Z,90.66
2017-11-13T02:37:51.872Z,90.76
2017-11-13T02:38:32.432Z,90.95
2017-11-13T02:39:12.995Z,90.95
2017-11-13T02:39:53.567Z,90.95
2017-11-13T02:40:34.128Z,90.76
2017-11-13T02:41:14.709Z,90.95
2017-11-13T02:41:55.292Z,90.95
2017-11-13T02:42:35.869Z,90.76
2017-11-13T02:43:16.441Z,90.95
2017-11-13T02:43:57.011Z,90.76
2017-11-13T02:44:37.597Z,90.95
2017-11-13T02:45:18.148Z,90.57
2017-11-13T02:45:58.716Z,90.57
2017-11-13T02:46:39.322Z,90.76
2017-11-13T02:47:19.921Z,90.66
2017-11-13T02:48:00.531Z,90.76
2017-11-13T02:48:41.064Z,90.76
2017-11-13T02:49:21.614Z,90.66
2017-11-13T02:50:02.187Z,90.76
2017-11-13T02:50:42.782Z,90.95
2017-11-13T02:51:23.328Z,91.04
2017-11-13T02:52:03.903Z,90.85
2017-11-13T02:52:44.468Z,91.04
2017-11-13T02:53:25.048Z,90.85
2017-11-13T02:54:05.624Z,90.95
2017-11-13T02:54:46.187Z,91.04
2017-11-13T02:55:26.765Z,90.95
2017-11-13T02:56:07.325Z,91.04
2017-11-13T02:56:47.885Z,90.38
2017-11-13T02:57:28.448Z,90.19
2017-11-13T02:58:09.018Z,90.28
2017-11-13T02:58:49.585Z,90
2017-11-13T02:59:30.143Z,89.9
2017-11-13T03:00:10.722Z,90.66
2017-11-13T03:00:51.277Z,90.19
2017-11-13T03:01:31.853Z,89.33
2017-11-13T03:02:12.434Z,89.53
2017-11-13T03:02:53.000Z,89.9
2017-11-13T03:03:33.564Z,90.09
2017-11-13T03:04:14.153Z,90.09
2017-11-13T03:04:54.712Z,90.19
2017-11-13T03:05:35.278Z,89.9
2017-11-13T03:06:15.844Z,89.9
2017-11-13T03:06:56.414Z,89.81
2017-11-13T03:07:36.988Z,89.9
2017-11-13T03:08:17.541Z,90.19
2017-11-13T03:08:58.154Z,90.28
2017-11-13T03:09:38.748Z,90.09
2017-11-13T03:10:19.336Z,90.19
2017-11-13T03:10:59.881Z,90.28
2017-11-13T03:11:40.468Z,90.47
2017-11-13T03:12:21.031Z,90.28
2017-11-13T03:13:01.625Z,90
2017-11-13T03:13:42.213Z,90.09
2017-11-13T03:14:22.773Z,89.9
2017-11-13T03:15:03.348Z,90.09
2017-11-13T03:15:43.950Z,89.9
2017-11-13T03:16:24.506Z,90.09
2017-11-13T03:17:05.099Z,90.19
2017-11-13T03:17:45.652Z,89.72
2017-11-13T03:18:26.215Z,89.81
2017-11-13T03:19:06.771Z,90.09
2017-11-13T03:19:47.356Z,90.09
2017-11-13T03:20:27.928Z,90.19
2017-11-13T03:21:08.502Z,89.53
2017-11-13T03:21:49.088Z,89.81
2017-11-13T03:22:29.683Z,89.81
2017-11-13T03:23:10.253Z,89.72
2017-11-13T03:23:50.826Z,89.9
2017-11-13T03:24:31.408Z,89.81
2017-11-13T03:25:11.984Z,89.62
2017-11-13T03:25:52.549Z,89.81
2017-11-13T03:26:33.110Z,89.72
2017-11-13T03:27:13.683Z,89.9
2017-11-13T03:27:54.293Z,89.81
2017-11-13T03:28:34.854Z,89.53
2017-11-13T03:29:15.446Z,89.53
2017-11-13T03:29:56.047Z,89.33
2017-11-13T03:30:36.620Z,89.53
2017-11-13T03:31:17.221Z,89.53
2017-11-13T03:31:57.778Z,89.53
2017-11-13T03:32:38.332Z,89.72
2017-11-13T03:33:18.902Z,89.24
2017-11-13T03:33:59.501Z,89.05
2017-11-13T03:34:40.064Z,89.05
2017-11-13T03:35:20.641Z,89.14
2017-11-13T03:36:01.228Z,89.43
2017-11-13T03:36:41.786Z,89.43
2017-11-13T03:37:22.377Z,89.24
2017-11-13T03:38:02.939Z,89.24
2017-11-13T03:38:43.530Z,89.33
2017-11-13T03:39:24.094Z,88.86
2017-11-13T03:40:04.647Z,89.05
2017-11-13T03:40:45.206Z,89.05
2017-11-13T03:41:25.782Z,89.14
2017-11-13T03:42:06.355Z,89.14
2017-11-13T03:42:46.912Z,89.33
2017-11-13T03:43:27.480Z,89.24
2017-11-13T03:44:08.079Z,89.24
2017-11-13T03:44:48.638Z,89.14
2017-11-13T03:45:29.193Z,89.05
2017-11-13T03:46:09.764Z,89.14
2017-11-13T03:46:50.337Z,89.05
2017-11-13T03:47:30.892Z,89.14
2017-11-13T03:48:11.455Z,89.24
2017-11-13T03:48:52.007Z,88.86
2017-11-13T03:49:32.586Z,89.14
2017-11-13T03:50:13.151Z,89.05
2017-11-13T03:50:53.730Z,89.33
2017-11-13T03:51:34.309Z,88.86
2017-11-13T03:52:14.882Z,89.05
2017-11-13T03:52:55.474Z,89.14
2017-11-13T03:53:36.028Z,89.05
2017-11-13T03:54:16.604Z,89.24
2017-11-13T03:54:57.167Z,89.43
2017-11-13T03:55:37.732Z,88.67
2017-11-13T03:56:18.296Z,88.67
2017-11-13T03:56:58.868Z,88.67
2017-11-13T03:57:39.444Z,88.67
2017-11-13T03:58:19.998Z,89.43
2017-11-13T03:59:00.558Z,89.24
2017-11-13T03:59:41.125Z,89.05
2017-11-13T04:00:21.673Z,89.05
2017-11-13T04:01:02.237Z,89.05
2017-11-13T04:01:42.796Z,89.33
2017-11-13T04:02:23.360Z,88.95
2017-11-13T04:03:03.940Z,88.95
2017-11-13T04:03:44.543Z,89.24
2017-11-13T04:04:25.110Z,89.14
2017-11-13T04:05:05.669Z,89.24
2017-11-13T04:05:46.234Z,89.24
2017-11-13T04:06:26.819Z,89.33
2017-11-13T04:07:07.385Z,89.33
2017-11-13T04:07:47.950Z,89.05
2017-11-13T04:08:28.526Z,88.67
2017-11-13T04:09:09.090Z,88.57
2017-11-13T04:09:49.672Z,88.86
2017-11-13T04:10:30.274Z,88.57
2017-11-13T04:11:10.856Z,88.76
2017-11-13T04:11:51.421Z,89.05
2017-11-13T04:12:32.005Z,89.05
2017-11-13T04:13:12.560Z,89.05
2017-11-13T04:13:53.174Z,89.05
2017-11-13T04:14:33.747Z,88.67
2017-11-13T04:15:14.316Z,88.95
2017-11-13T04:15:54.899Z,88.39
2017-11-13T04:16:35.469Z,88.29
2017-11-13T04:17:16.058Z,88.67
2017-11-13T04:17:56.621Z,88.1
2017-11-13T04:18:37.194Z,88.1
2017-11-13T04:19:17.765Z,88.01
2017-11-13T04:19:58.344Z,88.1
2017-11-13T04:20:38.941Z,88.39
2017-11-13T04:21:19.516Z,88.39
2017-11-13T04:22:00.085Z,88.67
2017-11-13T04:22:40.678Z,88.29
2017-11-13T04:23:21.228Z,88.57
2017-11-13T04:24:01.802Z,88.2
2017-11-13T04:24:42.370Z,88.2
2017-11-13T04:25:22.944Z,88.39
2017-11-13T04:26:03.559Z,88.67
2017-11-13T04:26:44.141Z,89.05
2017-11-13T04:27:24.724Z,88.76
2017-11-13T04:28:05.287Z,88.48
2017-11-13T04:28:45.874Z,87.91
2017-11-13T04:29:26.465Z,87.72
2017-11-13T04:30:07.047Z,88.01
2017-11-13T04:30:47.620Z,88.2
2017-11-13T04:31:28.188Z,87.82
2017-11-13T04:32:08.771Z,87.91
2017-11-13T04:32:49.333Z,87.72
2017-11-13T04:33:29.911Z,88.1
2017-11-13T04:34:10.473Z,88.29
2017-11-13T04:34:51.079Z,88.2
2017-11-13T04:35:31.646Z,87.91
2017-11-13T04:36:12.225Z,88.2
2017-11-13T04:36:52.796Z,88.2
2017-11-13T04:37:33.354Z,88.01
2017-11-13T04:38:13.927Z,87.72
2017-11-13T04:38:54.504Z,87.43
2017-11-13T04:39:35.070Z,87.43
2017-11-13T04:40:15.636Z,87.53
2017-11-13T04:40:56.203Z,87.34
2017-11-13T04:41:36.874Z,87.72
2017-11-13T04:42:17.448Z,87.77
2017-11-13T04:42:58.004Z,87.72
2017-11-13T04:43:38.556Z,87.82
2017-11-13T04:44:19.135Z,88.2
2017-11-13T04:44:59.718Z,87.68
2017-11-13T04:45:40.281Z,87.72
2017-11-13T04:46:20.829Z,87.87
2017-11-13T04:47:01.411Z,87.91
2017-11-13T04:47:41.972Z,88.29
2017-11-13T04:48:22.548Z,88.01
2017-11-13T04:49:03.167Z,87.87
2017-11-13T04:49:43.747Z,87.96
2017-11-13T04:50:24.349Z,87.96
2017-11-13T04:51:04.914Z,88.43
2017-11-13T04:51:45.471Z,88.39
2017-11-13T04:52:26.029Z,88.48
2017-11-13T04:53:06.600Z,87.96
2017-11-13T04:53:47.160Z,88.24
2017-11-13T04:54:27.759Z,88.53
2017-11-13T04:55:08.344Z,88.24
2017-11-13T04:55:48.918Z,88.91
2017-11-13T04:56:29.521Z,88.53
2017-11-13T04:57:10.072Z,88.43
2017-11-13T04:57:50.647Z,87.96
2017-11-13T04:58:31.216Z,87.49
2017-11-13T04:59:11.868Z,87.68
2017-11-13T04:59:52.443Z,87.2
2017-11-13T05:00:33.026Z,87.58
2017-11-13T05:01:13.598Z,87.58
2017-11-13T05:01:54.174Z,87.49
2017-11-13T05:02:34.735Z,87.49
2017-11-13T05:03:15.321Z,87.49
2017-11-13T05:03:55.938Z,87.68
2017-11-13T05:04:36.536Z,87.49
2017-11-13T05:05:17.106Z,87.77
2017-11-13T05:05:57.691Z,87.96
2017-11-13T05:06:38.267Z,87.68
2017-11-13T05:07:18.859Z,87.77
2017-11-13T05:07:59.486Z,88.24
2017-11-13T05:08:40.061Z,88.15
2017-11-13T05:09:20.698Z,88.34
2017-11-13T05:10:01.281Z,88.15
2017-11-13T05:10:41.860Z,88.53
2017-11-13T05:11:22.441Z,88.43
2017-11-13T05:12:03.014Z,88.43
2017-11-13T05:12:43.594Z,88.91
2017-11-13T05:13:24.161Z,88.81
2017-11-13T05:14:04.761Z,88.34
2017-11-13T05:14:45.346Z,88.72
2017-11-13T05:15:25.935Z,88.91
2017-11-13T05:16:06.505Z,89.2
2017-11-13T05:16:47.065Z,89
2017-11-13T05:17:27.624Z,89.29
2017-11-13T05:18:08.208Z,89.2
2017-11-13T05:18:48.768Z,89.2
2017-11-13T05:19:29.341Z,89.39
2017-11-13T05:20:09.917Z,89
2017-11-13T05:20:50.493Z,89.48
2017-11-13T05:21:31.061Z,89.39
2017-11-13T05:22:11.722Z,89.58
2017-11-13T05:22:52.285Z,89.86
2017-11-13T05:23:32.859Z,89.76
2017-11-13T05:24:13.421Z,89.76
2017-11-13T05:24:54.009Z,90.14
2017-11-13T05:25:34.568Z,89.95
2017-11-13T05:26:15.122Z,90.05
2017-11-13T05:26:55.689Z,89.86
2017-11-13T05:27:36.260Z,90.24
2017-11-13T05:28:16.834Z,90.43
2017-11-13T05:28:57.402Z,90.33
2017-11-13T05:29:37.977Z,90.33
2017-11-13T05:30:18.575Z,90.81
2017-11-13T05:30:59.126Z,90.71
2017-11-13T05:31:39.693Z,90.9
2017-11-13T05:32:20.268Z,90.43
2017-11-13T05:33:00.834Z,90.9
2017-11-13T05:33:41.397Z,91
2017-11-13T05:34:21.961Z,91.38
2017-11-13T05:35:02.520Z,91.09
2017-11-13T05:35:43.095Z,91.09
2017-11-13T05:36:23.661Z,91.38
2017-11-13T05:37:04.239Z,91.38
2017-11-13T05:37:44.817Z,91.56
2017-11-13T05:38:25.376Z,91.85
2017-11-13T05:39:05.942Z,91.66
2017-11-13T05:39:46.517Z,91.56
2017-11-13T05:40:27.110Z,91.56
2017-11-13T05:41:07.729Z,91.56
2017-11-13T05:41:48.293Z,91.75
2017-11-13T05:42:28.854Z,91.28
2017-11-13T05:43:09.431Z,91.47
2017-11-13T05:43:49.995Z,91.75
2017-11-13T05:44:30.567Z,91.47
2017-11-13T05:45:11.153Z,91.47
2017-11-13T05:45:51.717Z,91.47
2017-11-13T05:46:32.472Z,91.75
2017-11-13T05:47:13.030Z,91.66
2017-11-13T05:47:53.599Z,91.56
2017-11-13T05:48:34.164Z,91.75
2017-11-13T05:49:14.738Z,91.94
2017-11-13T05:49:55.317Z,91.56
2017-11-13T05:50:35.895Z,91.66
2017-11-13T05:51:16.480Z,91.94
2017-11-13T05:51:57.070Z,91.85
2017-11-13T05:52:37.610Z,91.85
2017-11-13T05:53:18.192Z,91.28
2017-11-13T05:53:58.767Z,91.85
2017-11-13T05:54:39.340Z,91.94
2017-11-13T05:55:19.940Z,92.33
2017-11-13T05:56:00.512Z,92.23
2017-11-13T05:56:41.092Z,92.14
2017-11-13T05:57:21.686Z,92.14
2017-11-13T05:58:02.273Z,91.94
2017-11-13T05:58:42.899Z,92.14
2017-11-13T05:59:23.461Z,92.52
2017-11-13T06:00:04.028Z,92.61
2017-11-13T06:00:44.603Z,92.33
2017-11-13T06:01:25.202Z,92.71
2017-11-13T06:02:05.746Z,92.61
2017-11-13T06:02:46.340Z,92.33
2017-11-13T06:03:26.914Z,92.42
2017-11-13T06:04:07.499Z,92.23
2017-11-13T06:04:48.071Z,92.42
2017-11-13T06:05:28.637Z,92.23
2017-11-13T06:06:09.222Z,92.33
2017-11-13T06:06:49.781Z,92.42
2017-11-13T06:07:30.353Z,92.8
2017-11-13T06:08:10.924Z,92.42
2017-11-13T06:08:51.524Z,92.23
2017-11-13T06:09:32.095Z,92.52
2017-11-13T06:10:12.665Z,92.33
2017-11-13T06:10:53.216Z,92.42
2017-11-13T06:11:33.779Z,92.18
2017-11-13T06:12:14.355Z,92.8
2017-11-13T06:12:54.927Z,92.42
2017-11-13T06:13:35.481Z,92.42
2017-11-13T06:14:16.061Z,92.33
2017-11-13T06:14:56.633Z,92.23
2017-11-13T06:15:37.256Z,92.94
2017-11-13T06:16:17.813Z,92.85
2017-11-13T06:16:58.391Z,93.27
2017-11-13T06:17:39.005Z,93.18
2017-11-13T06:18:19.611Z,93.13
2017-11-13T06:19:00.183Z,93.13
2017-11-13T06:19:40.772Z,93.13
2017-11-13T06:20:21.349Z,93.8
2017-11-13T06:21:01.915Z,98.07
2017-11-13T06:21:42.525Z,99.99
2017-11-13T06:22:23.083Z,99.99
2017-11-13T06:23:03.656Z,99.99
2017-11-13T06:23:44.215Z,99.99
2017-11-13T06:24:24.802Z,99.99
2017-11-13T06:25:05.401Z,99.99
2017-11-13T06:25:45.972Z,99.99
2017-11-13T06:26:27.016Z,99.99
2017-11-13T06:27:07.345Z,98.79
2017-11-13T06:27:47.901Z,98.31
2017-11-13T06:28:28.472Z,97.55
2017-11-13T06:29:09.084Z,96.03
2017-11-13T06:29:49.694Z,94.46
2017-11-13T06:30:30.241Z,93.32
2017-11-13T06:31:11.048Z,92.18
2017-11-13T06:31:51.606Z,91.51
2017-11-13T06:32:33.304Z,89.23
2017-11-13T06:33:13.928Z,86.94
2017-11-13T06:33:54.490Z,85.52
2017-11-13T06:34:35.150Z,84.28
2017-11-13T06:35:15.739Z,84.05
2017-11-13T06:35:56.302Z,84.43
2017-11-13T06:36:36.897Z,83.58
2017-11-13T06:37:17.461Z,83.95
2017-11-13T06:37:58.060Z,84.24
2017-11-13T06:38:38.606Z,84.43
2017-11-13T06:39:19.202Z,84.67
2017-11-13T06:39:59.800Z,84.86
2017-11-13T06:40:40.355Z,84.86
2017-11-13T06:41:20.956Z,85.62
2017-11-13T06:42:01.540Z,85.62
2017-11-13T06:42:42.113Z,85.81
2017-11-13T06:43:22.672Z,86
2017-11-13T06:44:03.249Z,86.67
2017-11-13T06:44:43.830Z,86.76
2017-11-13T06:45:24.394Z,87.01
2017-11-13T06:46:04.978Z,87.1
2017-11-13T06:46:45.551Z,87.19
2017-11-13T06:47:26.109Z,87.01
2017-11-13T06:48:06.705Z,87.1
2017-11-13T06:48:47.721Z,87.57
2017-11-13T06:49:28.293Z,87.48
2017-11-13T06:50:08.911Z,88.34
2017-11-13T06:50:49.496Z,87.76
2017-11-13T06:51:30.244Z,88.15
2017-11-13T06:52:10.837Z,88.43
2017-11-13T06:52:51.400Z,88.43
2017-11-13T06:53:31.953Z,88.62
2017-11-13T06:54:12.527Z,88.24
2017-11-13T06:54:53.116Z,89.09
2017-11-13T06:55:33.697Z,88.9
2017-11-13T06:56:14.385Z,88.62
2017-11-13T06:56:54.948Z,89.47
2017-11-13T06:57:35.522Z,89.19
2017-11-13T06:58:16.127Z,89.19
2017-11-13T06:58:56.688Z,89.47
2017-11-13T06:59:37.277Z,89.28
2017-11-13T07:00:17.835Z,89.76
2017-11-13T07:00:58.397Z,89.28
2017-11-13T07:01:38.972Z,89.38
2017-11-13T07:02:19.560Z,89.76
2017-11-13T07:03:00.145Z,89.47
2017-11-13T07:03:40.716Z,89.09
2017-11-13T07:04:21.362Z,89.47
2017-11-13T07:05:01.936Z,89.19
2017-11-13T07:05:43.296Z,89.57
2017-11-13T07:06:23.907Z,89.67
2017-11-13T07:07:04.505Z,89.72
2017-11-13T07:07:45.081Z,89.62
2017-11-13T07:08:25.694Z,90.23
2017-11-13T07:09:06.284Z,90.05
2017-11-13T07:09:46.861Z,90.05
2017-11-13T07:10:27.428Z,90.19
2017-11-13T07:11:07.982Z,90.19
2017-11-13T07:11:48.558Z,90.47
2017-11-13T07:12:29.110Z,90.19
2017-11-13T07:13:09.688Z,89.9
2017-11-13T07:13:50.254Z,89.81
2017-11-13T07:14:30.835Z,90.19
2017-11-13T07:15:11.412Z,90.38
2017-11-13T07:15:51.975Z,90.47
2017-11-13T07:16:32.598Z,90.95
2017-11-13T07:17:13.160Z,90.85
2017-11-13T07:17:53.740Z,90.76
2017-11-13T07:18:34.314Z,90.85
2017-11-13T07:19:14.878Z,91.14
2017-11-13T07:19:55.434Z,90.95
2017-11-13T07:20:36.126Z,90.95
2017-11-13T07:21:16.711Z,91.33
2017-11-13T07:21:57.274Z,91.14
2017-11-13T07:22:37.857Z,91.42
2017-11-13T07:23:18.424Z,90.95
2017-11-13T07:23:58.993Z,90.76
2017-11-13T07:24:39.573Z,91.04
2017-11-13T07:25:20.129Z,90.95
2017-11-13T07:26:00.871Z,90.76
2017-11-13T07:26:41.461Z,90.66
2017-11-13T07:27:22.062Z,90.66
2017-11-13T07:28:02.698Z,90.95
2017-11-13T07:28:43.297Z,90.57
2017-11-13T07:29:23.886Z,90.38
2017-11-13T07:30:04.445Z,90
2017-11-13T07:30:45.031Z,90.38
2017-11-13T07:31:25.614Z,90
2017-11-13T07:32:06.178Z,89.9
2017-11-13T07:32:46.741Z,90.47
2017-11-13T07:33:27.317Z,90.57
2017-11-13T07:34:07.893Z,90.95
2017-11-13T07:34:48.462Z,91.33
2017-11-13T07:35:29.039Z,90.95
2017-11-13T07:36:09.657Z,91.14
2017-11-13T07:36:50.191Z,91.14
2017-11-13T07:37:30.814Z,91.24
2017-11-13T07:38:11.397Z,91.33
2017-11-13T07:38:51.974Z,91.04
2017-11-13T07:39:32.598Z,90.76
2017-11-13T07:40:13.179Z,90.85
2017-11-13T07:40:53.751Z,91.04
2017-11-13T07:41:34.981Z,90.95
2017-11-13T07:42:15.578Z,90.85
2017-11-13T07:42:56.156Z,90.47
2017-11-13T07:43:36.743Z,90.95
2017-11-13T07:44:17.328Z,90.76
2017-11-13T07:44:57.900Z,90.38
2017-11-13T07:45:38.461Z,91.24
2017-11-13T07:46:19.041Z,91.14
2017-11-13T07:46:59.630Z,91.14
2017-11-13T07:47:40.215Z,91.33
2017-11-13T07:48:23.374Z,91.33
2017-11-13T07:49:04.421Z,91.42
2017-11-13T07:49:45.022Z,91.04
2017-11-13T07:50:25.626Z,90.95
2017-11-13T07:51:06.354Z,91.04
2017-11-13T07:51:46.924Z,91.04
2017-11-13T07:52:27.586Z,91.09
2017-11-13T07:53:08.164Z,91.42
2017-11-13T07:53:48.760Z,90.95
2017-11-13T07:54:29.343Z,91.33
2017-11-13T07:55:09.911Z,91.04
2017-11-13T07:55:50.479Z,91.33
2017-11-13T07:56:31.051Z,91.42
2017-11-13T07:57:11.627Z,91.14
2017-11-13T07:57:52.195Z,91.24
2017-11-13T07:58:32.754Z,91.42
2017-11-13T07:59:13.353Z,90.76
2017-11-13T07:59:53.952Z,90.57
2017-11-13T08:00:34.513Z,90.95
2017-11-13T08:01:15.087Z,91.04
2017-11-13T08:01:55.679Z,90.66
2017-11-13T08:02:36.256Z,90.95
2017-11-13T08:03:16.821Z,91.42
2017-11-13T08:03:57.403Z,91.42
2017-11-13T08:04:37.970Z,91.33
2017-11-13T08:05:18.534Z,91.24
2017-11-13T08:05:59.107Z,91.52
2017-11-13T08:06:39.698Z,91.89
2017-11-13T08:07:20.276Z,91.42
2017-11-13T08:08:00.838Z,91.24
2017-11-13T08:08:41.461Z,91.14
2017-11-13T08:09:22.047Z,91.71
2017-11-13T08:10:02.654Z,91.61
2017-11-13T08:10:43.241Z,91.71
2017-11-13T08:11:23.807Z,91.61
2017-11-13T08:12:04.363Z,91.61
2017-11-13T08:12:44.928Z,91.8
2017-11-13T08:13:25.488Z,91.8
2017-11-13T08:14:06.052Z,91.99
2017-11-13T08:14:46.630Z,91.8
2017-11-13T08:15:27.191Z,92.09
2017-11-13T08:16:07.816Z,92.09
2017-11-13T08:16:48.398Z,92.47
2017-11-13T08:17:28.972Z,92.28
2017-11-13T08:18:09.557Z,92.28
2017-11-13T08:18:50.135Z,92.47
2017-11-13T08:19:30.723Z,93.04
2017-11-13T08:20:11.273Z,93.13
2017-11-13T08:20:51.855Z,92.94
2017-11-13T08:21:32.416Z,92.56
2017-11-13T08:22:12.981Z,92.56
2017-11-13T08:22:53.550Z,92.75
2017-11-13T08:23:34.115Z,92.66
2017-11-13T08:24:14.677Z,92.37
2017-11-13T08:24:55.269Z,92.28
2017-11-13T08:25:35.859Z,91.99
2017-11-13T08:26:16.417Z,91.99
2017-11-13T08:26:56.979Z,91.52
2017-11-13T08:27:37.554Z,91.89
2017-11-13T08:28:18.166Z,91.99
2017-11-13T08:28:58.723Z,91.8
2017-11-13T08:29:39.313Z,91.61
2017-11-13T08:30:19.867Z,91.33
2017-11-13T08:31:00.441Z,91.33
2017-11-13T08:31:41.059Z,91.42
2017-11-13T08:32:21.688Z,91.24
2017-11-13T08:33:02.269Z,91.71
2017-11-13T08:33:42.850Z,91.52
2017-11-13T08:34:23.443Z,91.61
2017-11-13T08:35:04.018Z,91.8
2017-11-13T08:35:44.574Z,91.33
2017-11-13T08:36:25.164Z,91.99
2017-11-13T08:37:05.742Z,91.71
2017-11-13T08:37:46.320Z,91.47
2017-11-13T08:38:26.899Z,91.71
2017-11-13T08:39:07.517Z,91.66
2017-11-13T08:39:48.119Z,92.04
2017-11-13T08:40:28.700Z,92.42
2017-11-13T08:41:09.283Z,92.33
2017-11-13T08:41:49.859Z,92.33
2017-11-13T08:42:30.414Z,92.52
2017-11-13T08:43:10.999Z,92.52
2017-11-13T08:43:51.614Z,92.23
2017-11-13T08:44:32.193Z,92.23